sensor_id;sensor_type;location;lat;lon;timestamp;pressure;altitude;pressure_sealevel;temperature;humidity
56681;BME280;42558;52.388;13.390;2023-03-07T00:01:31;99671.60;;;-2.83;100.00
56681;BME280;42558;52.388;13.390;2023-03-07T00:04:01;99668.91;;;-2.82;100.00
56681;BME280;42558;52.388;13.390;2023-03-07T00:06:31;99670.58;;;-2.80;100.00
56681;BME280;42558;52.388;13.390;2023-03-07T00:09:01;99667.35;;;-2.79;100.00
56681;BME280;42558;52.388;13.390;2023-03-07T00:11:32;99655.85;;;-2.78;100.00
56681;BME280;42558;52.388;13.390;2023-03-07T00:14:06;99654.27;;;-2.82;100.00
56681;BME280;42558;52.388;13.390;2023-03-07T00:16:36;99650.55;;;-2.85;100.00
56681;BME280;42558;52.388;13.390;2023-03-07T00:19:06;99646.71;;;-2.82;100.00
56681;BME280;42558;52.388;13.390;2023-03-07T00:21:36;99640.95;;;-2.84;100.00
56681;BME280;42558;52.388;13.390;2023-03-07T00:24:08;99638.88;;;-2.84;100.00
56681;BME280;42558;52.388;13.390;2023-03-07T00:26:38;99636.14;;;-2.84;100.00
56681;BME280;42558;52.388;13.390;2023-03-07T00:29:09;99634.31;;;-2.86;100.00
56681;BME280;42558;52.388;13.390;2023-03-07T00:31:39;99625.20;;;-2.86;100.00
56681;BME280;42558;52.388;13.390;2023-03-07T00:34:09;99623.51;;;-2.85;100.00
56681;BME280;42558;52.388;13.390;2023-03-07T00:36:38;99619.16;;;-2.83;100.00
56681;BME280;42558;52.388;13.390;2023-03-07T00:39:06;99617.64;;;-2.89;100.00
56681;BME280;42558;52.388;13.390;2023-03-07T00:41:35;99616.27;;;-2.86;100.00
56681;BME280;42558;52.388;13.390;2023-03-07T00:44:03;99608.77;;;-2.88;100.00
56681;BME280;42558;52.388;13.390;2023-03-07T00:46:32;99599.76;;;-2.86;100.00
56681;BME280;42558;52.388;13.390;2023-03-07T00:49:00;99594.80;;;-2.78;100.00
56681;BME280;42558;52.388;13.390;2023-03-07T00:51:28;99588.47;;;-2.81;100.00
56681;BME280;42558;52.388;13.390;2023-03-07T00:53:57;99577.37;;;-2.79;100.00
56681;BME280;42558;52.388;13.390;2023-03-07T00:56:25;99572.70;;;-2.73;100.00
56681;BME280;42558;52.388;13.390;2023-03-07T00:58:54;99567.92;;;-2.68;100.00
56681;BME280;42558;52.388;13.390;2023-03-07T01:01:24;99562.86;;;-2.66;100.00
56681;BME280;42558;52.388;13.390;2023-03-07T01:03:54;99561.70;;;-2.61;100.00
56681;BME280;42558;52.388;13.390;2023-03-07T01:06:26;99558.61;;;-2.61;100.00
56681;BME280;42558;52.388;13.390;2023-03-07T01:08:59;99551.79;;;-2.60;100.00
56681;BME280;42558;52.388;13.390;2023-03-07T01:11:31;99542.56;;;-2.55;100.00
56681;BME280;42558;52.388;13.390;2023-03-07T01:14:05;99535.71;;;-2.54;100.00
56681;BME280;42558;52.388;13.390;2023-03-07T01:16:35;99529.54;;;-2.58;100.00
56681;BME280;42558;52.388;13.390;2023-03-07T01:19:07;99528.77;;;-2.59;100.00
56681;BME280;42558;52.388;13.390;2023-03-07T01:21:41;99527.59;;;-2.55;100.00
56681;BME280;42558;52.388;13.390;2023-03-07T01:24:14;99522.44;;;-2.51;100.00
56681;BME280;42558;52.388;13.390;2023-03-07T01:26:42;99518.48;;;-2.47;100.00
56681;BME280;42558;52.388;13.390;2023-03-07T01:29:12;99511.73;;;-2.40;100.00
56681;BME280;42558;52.388;13.390;2023-03-07T01:31:41;99502.77;;;-2.36;100.00
56681;BME280;42558;52.388;13.390;2023-03-07T01:34:11;99500.83;;;-2.34;100.00
56681;BME280;42558;52.388;13.390;2023-03-07T01:36:41;99493.09;;;-2.30;100.00
56681;BME280;42558;52.388;13.390;2023-03-07T01:39:15;99483.81;;;-2.26;100.00
56681;BME280;42558;52.388;13.390;2023-03-07T01:41:45;99475.55;;;-2.21;100.00
56681;BME280;42558;52.388;13.390;2023-03-07T01:44:19;99469.81;;;-2.15;100.00
56681;BME280;42558;52.388;13.390;2023-03-07T01:46:58;99464.55;;;-2.09;100.00
56681;BME280;42558;52.388;13.390;2023-03-07T01:52:09;99447.45;;;-1.99;100.00
56681;BME280;42558;52.388;13.390;2023-03-07T01:54:46;99438.26;;;-1.92;100.00
56681;BME280;42558;52.388;13.390;2023-03-07T01:57:20;99439.33;;;-1.87;100.00
56681;BME280;42558;52.388;13.390;2023-03-07T01:59:56;99431.36;;;-1.83;100.00
56681;BME280;42558;52.388;13.390;2023-03-07T02:02:28;99423.23;;;-1.75;100.00
56681;BME280;42558;52.388;13.390;2023-03-07T02:05:05;99420.08;;;-1.73;100.00
56681;BME280;42558;52.388;13.390;2023-03-07T02:07:47;99410.88;;;-1.70;100.00
56681;BME280;42558;52.388;13.390;2023-03-07T02:10:21;99400.86;;;-1.67;100.00
56681;BME280;42558;52.388;13.390;2023-03-07T02:12:52;99399.20;;;-1.65;100.00
56681;BME280;42558;52.388;13.390;2023-03-07T02:15:23;99393.64;;;-1.61;100.00
56681;BME280;42558;52.388;13.390;2023-03-07T02:17:53;99389.99;;;-1.58;100.00
56681;BME280;42558;52.388;13.390;2023-03-07T02:22:54;99372.92;;;-1.54;100.00
56681;BME280;42558;52.388;13.390;2023-03-07T02:25:37;99365.98;;;-1.51;100.00
56681;BME280;42558;52.388;13.390;2023-03-07T02:28:12;99355.84;;;-1.50;100.00
56681;BME280;42558;52.388;13.390;2023-03-07T02:30:54;99356.13;;;-1.47;100.00
56681;BME280;42558;52.388;13.390;2023-03-07T02:33:24;99346.73;;;-1.46;100.00
56681;BME280;42558;52.388;13.390;2023-03-07T02:36:01;99339.36;;;-1.44;100.00
56681;BME280;42558;52.388;13.390;2023-03-07T02:38:37;99342.02;;;-1.42;100.00
56681;BME280;42558;52.388;13.390;2023-03-07T02:41:11;99332.68;;;-1.43;100.00
56681;BME280;42558;52.388;13.390;2023-03-07T02:43:41;99326.49;;;-1.43;100.00
56681;BME280;42558;52.388;13.390;2023-03-07T02:46:11;99321.46;;;-1.43;100.00
56681;BME280;42558;52.388;13.390;2023-03-07T02:48:41;99317.84;;;-1.44;100.00
56681;BME280;42558;52.388;13.390;2023-03-07T02:51:11;99309.75;;;-1.43;100.00
56681;BME280;42558;52.388;13.390;2023-03-07T02:53:40;99307.16;;;-1.39;100.00
56681;BME280;42558;52.388;13.390;2023-03-07T02:56:10;99298.98;;;-1.37;100.00
56681;BME280;42558;52.388;13.390;2023-03-07T02:58:40;99294.54;;;-1.35;100.00
56681;BME280;42558;52.388;13.390;2023-03-07T03:01:10;99285.56;;;-1.35;100.00
56681;BME280;42558;52.388;13.390;2023-03-07T03:03:40;99286.77;;;-1.35;100.00
56681;BME280;42558;52.388;13.390;2023-03-07T03:06:10;99282.45;;;-1.35;100.00
56681;BME280;42558;52.388;13.390;2023-03-07T03:08:40;99275.84;;;-1.33;100.00
56681;BME280;42558;52.388;13.390;2023-03-07T03:11:09;99268.04;;;-1.34;100.00
56681;BME280;42558;52.388;13.390;2023-03-07T03:13:39;99262.86;;;-1.34;100.00
56681;BME280;42558;52.388;13.390;2023-03-07T03:16:09;99256.06;;;-1.32;100.00
56681;BME280;42558;52.388;13.390;2023-03-07T03:18:39;99249.50;;;-1.32;100.00
56681;BME280;42558;52.388;13.390;2023-03-07T03:21:10;99248.62;;;-1.32;100.00
56681;BME280;42558;52.388;13.390;2023-03-07T03:23:40;99236.83;;;-1.29;100.00
56681;BME280;42558;52.388;13.390;2023-03-07T03:26:10;99231.03;;;-1.27;100.00
56681;BME280;42558;52.388;13.390;2023-03-07T03:28:40;99226.68;;;-1.24;100.00
56681;BME280;42558;52.388;13.390;2023-03-07T03:31:11;99213.42;;;-1.23;100.00
56681;BME280;42558;52.388;13.390;2023-03-07T03:33:44;99214.10;;;-1.24;100.00
56681;BME280;42558;52.388;13.390;2023-03-07T03:36:16;99205.80;;;-1.20;100.00
56681;BME280;42558;52.388;13.390;2023-03-07T03:38:45;99201.15;;;-1.19;100.00
56681;BME280;42558;52.388;13.390;2023-03-07T03:41:15;99199.20;;;-1.16;100.00
56681;BME280;42558;52.388;13.390;2023-03-07T03:43:45;99189.45;;;-1.14;100.00
56681;BME280;42558;52.388;13.390;2023-03-07T03:46:16;99181.92;;;-1.12;100.00
56681;BME280;42558;52.388;13.390;2023-03-07T03:48:53;99178.77;;;-1.08;100.00
56681;BME280;42558;52.388;13.390;2023-03-07T03:51:24;99175.14;;;-1.08;100.00
56681;BME280;42558;52.388;13.390;2023-03-07T03:53:54;99168.02;;;-1.06;100.00
56681;BME280;42558;52.388;13.390;2023-03-07T03:56:26;99163.88;;;-1.05;100.00
56681;BME280;42558;52.388;13.390;2023-03-07T03:58:55;99160.02;;;-1.02;100.00
56681;BME280;42558;52.388;13.390;2023-03-07T04:01:28;99157.30;;;-0.96;100.00
56681;BME280;42558;52.388;13.390;2023-03-07T04:03:58;99150.54;;;-0.92;100.00
56681;BME280;42558;52.388;13.390;2023-03-07T04:06:32;99146.52;;;-0.88;100.00
56681;BME280;42558;52.388;13.390;2023-03-07T04:09:00;99143.59;;;-0.83;100.00
56681;BME280;42558;52.388;13.390;2023-03-07T04:11:32;99137.54;;;-0.77;100.00
56681;BME280;42558;52.388;13.390;2023-03-07T04:14:02;99134.62;;;-0.72;100.00
56681;BME280;42558;52.388;13.390;2023-03-07T04:16:32;99132.89;;;-0.67;100.00
56681;BME280;42558;52.388;13.390;2023-03-07T04:19:02;99127.32;;;-0.68;100.00
56681;BME280;42558;52.388;13.390;2023-03-07T04:21:32;99121.38;;;-0.65;100.00
56681;BME280;42558;52.388;13.390;2023-03-07T04:24:02;99116.58;;;-0.58;100.00
56681;BME280;42558;52.388;13.390;2023-03-07T04:26:33;99110.06;;;-0.57;100.00
56681;BME280;42558;52.388;13.390;2023-03-07T04:29:04;99105.16;;;-0.54;100.00
56681;BME280;42558;52.388;13.390;2023-03-07T04:31:33;99099.45;;;-0.54;100.00
56681;BME280;42558;52.388;13.390;2023-03-07T04:34:02;99099.73;;;-0.51;100.00
56681;BME280;42558;52.388;13.390;2023-03-07T04:36:30;99099.13;;;-0.48;100.00
56681;BME280;42558;52.388;13.390;2023-03-07T04:38:59;99092.63;;;-0.46;100.00
56681;BME280;42558;52.388;13.390;2023-03-07T04:41:27;99094.14;;;-0.41;100.00
56681;BME280;42558;52.388;13.390;2023-03-07T04:43:56;99090.11;;;-0.38;100.00
56681;BME280;42558;52.388;13.390;2023-03-07T04:46:25;99084.27;;;-0.37;100.00
56681;BME280;42558;52.388;13.390;2023-03-07T04:48:53;99086.48;;;-0.38;100.00
56681;BME280;42558;52.388;13.390;2023-03-07T04:51:22;99079.36;;;-0.40;100.00
56681;BME280;42558;52.388;13.390;2023-03-07T04:53:50;99077.49;;;-0.44;100.00
56681;BME280;42558;52.388;13.390;2023-03-07T04:56:18;99072.71;;;-0.48;100.00
56681;BME280;42558;52.388;13.390;2023-03-07T04:58:46;99068.83;;;-0.51;100.00
56681;BME280;42558;52.388;13.390;2023-03-07T05:01:15;99065.98;;;-0.53;100.00
56681;BME280;42558;52.388;13.390;2023-03-07T05:03:43;99064.21;;;-0.55;100.00
56681;BME280;42558;52.388;13.390;2023-03-07T05:06:14;99057.91;;;-0.58;100.00
56681;BME280;42558;52.388;13.390;2023-03-07T05:08:43;99052.52;;;-0.59;100.00
56681;BME280;42558;52.388;13.390;2023-03-07T05:11:12;99049.72;;;-0.61;100.00
56681;BME280;42558;52.388;13.390;2023-03-07T05:13:40;99046.21;;;-0.62;100.00
56681;BME280;42558;52.388;13.390;2023-03-07T05:16:09;99041.44;;;-0.61;100.00
56681;BME280;42558;52.388;13.390;2023-03-07T05:18:37;99037.28;;;-0.61;100.00
56681;BME280;42558;52.388;13.390;2023-03-07T05:21:05;99040.78;;;-0.60;100.00
56681;BME280;42558;52.388;13.390;2023-03-07T05:23:34;99029.02;;;-0.61;100.00
56681;BME280;42558;52.388;13.390;2023-03-07T05:26:02;99031.79;;;-0.60;100.00
56681;BME280;42558;52.388;13.390;2023-03-07T05:28:31;99032.66;;;-0.54;100.00
56681;BME280;42558;52.388;13.390;2023-03-07T05:30:59;99025.77;;;-0.53;100.00
56681;BME280;42558;52.388;13.390;2023-03-07T05:33:28;99025.59;;;-0.54;100.00
56681;BME280;42558;52.388;13.390;2023-03-07T05:36:00;99021.42;;;-0.54;100.00
56681;BME280;42558;52.388;13.390;2023-03-07T05:38:31;99022.08;;;-0.56;100.00
56681;BME280;42558;52.388;13.390;2023-03-07T05:41:00;99020.99;;;-0.52;100.00
56681;BME280;42558;52.388;13.390;2023-03-07T05:43:30;99017.45;;;-0.48;100.00
56681;BME280;42558;52.388;13.390;2023-03-07T05:46:00;99018.31;;;-0.49;100.00
56681;BME280;42558;52.388;13.390;2023-03-07T05:48:30;99017.92;;;-0.50;100.00
56681;BME280;42558;52.388;13.390;2023-03-07T05:51:00;99015.09;;;-0.53;100.00
56681;BME280;42558;52.388;13.390;2023-03-07T05:53:28;99011.66;;;-0.52;100.00
56681;BME280;42558;52.388;13.390;2023-03-07T05:55:57;99013.23;;;-0.52;100.00
56681;BME280;42558;52.388;13.390;2023-03-07T05:58:25;99016.41;;;-0.49;100.00
56681;BME280;42558;52.388;13.390;2023-03-07T06:00:54;99010.00;;;-0.44;100.00
56681;BME280;42558;52.388;13.390;2023-03-07T06:03:22;99009.25;;;-0.40;100.00
56681;BME280;42558;52.388;13.390;2023-03-07T06:05:51;99008.21;;;-0.40;100.00
56681;BME280;42558;52.388;13.390;2023-03-07T06:08:19;99013.00;;;-0.36;100.00
56681;BME280;42558;52.388;13.390;2023-03-07T06:10:52;99012.23;;;-0.32;100.00
56681;BME280;42558;52.388;13.390;2023-03-07T06:13:23;99007.25;;;-0.32;100.00
56681;BME280;42558;52.388;13.390;2023-03-07T06:15:54;99003.49;;;-0.30;100.00
56681;BME280;42558;52.388;13.390;2023-03-07T06:18:25;98998.01;;;-0.29;100.00
56681;BME280;42558;52.388;13.390;2023-03-07T06:20:57;99001.59;;;-0.24;100.00
56681;BME280;42558;52.388;13.390;2023-03-07T06:23:31;99002.85;;;-0.21;100.00
56681;BME280;42558;52.388;13.390;2023-03-07T06:26:02;98996.09;;;-0.23;100.00
56681;BME280;42558;52.388;13.390;2023-03-07T06:28:34;98999.00;;;-0.24;100.00
56681;BME280;42558;52.388;13.390;2023-03-07T06:31:09;98992.64;;;-0.23;100.00
56681;BME280;42558;52.388;13.390;2023-03-07T06:33:42;98991.88;;;-0.19;100.00
56681;BME280;42558;52.388;13.390;2023-03-07T06:36:15;98992.69;;;-0.15;100.00
56681;BME280;42558;52.388;13.390;2023-03-07T06:38:46;98990.41;;;-0.16;100.00
56681;BME280;42558;52.388;13.390;2023-03-07T06:41:16;98990.58;;;-0.16;100.00
56681;BME280;42558;52.388;13.390;2023-03-07T06:43:50;98994.04;;;-0.16;100.00
56681;BME280;42558;52.388;13.390;2023-03-07T06:46:21;98992.39;;;-0.13;100.00
56681;BME280;42558;52.388;13.390;2023-03-07T06:48:51;98993.66;;;-0.11;100.00
56681;BME280;42558;52.388;13.390;2023-03-07T06:51:20;98997.11;;;-0.11;100.00
56681;BME280;42558;52.388;13.390;2023-03-07T06:53:50;98997.84;;;-0.10;100.00
56681;BME280;42558;52.388;13.390;2023-03-07T06:56:20;98993.80;;;-0.06;100.00
56681;BME280;42558;52.388;13.390;2023-03-07T06:58:50;98995.76;;;-0.04;100.00
56681;BME280;42558;52.388;13.390;2023-03-07T07:01:21;99003.17;;;0.02;100.00
56681;BME280;42558;52.388;13.390;2023-03-07T07:03:55;99002.27;;;0.06;100.00
56681;BME280;42558;52.388;13.390;2023-03-07T07:06:26;99002.95;;;0.06;100.00
56681;BME280;42558;52.388;13.390;2023-03-07T07:08:57;99002.80;;;0.07;100.00
56681;BME280;42558;52.388;13.390;2023-03-07T07:11:27;99002.55;;;0.12;100.00
56681;BME280;42558;52.388;13.390;2023-03-07T07:13:57;99000.12;;;0.10;100.00
56681;BME280;42558;52.388;13.390;2023-03-07T07:16:27;98996.23;;;0.14;100.00
56681;BME280;42558;52.388;13.390;2023-03-07T07:18:58;98992.60;;;0.21;100.00
56681;BME280;42558;52.388;13.390;2023-03-07T07:21:28;98990.85;;;0.26;100.00
56681;BME280;42558;52.388;13.390;2023-03-07T07:23:58;98995.42;;;0.30;100.00
56681;BME280;42558;52.388;13.390;2023-03-07T07:26:28;98998.67;;;0.35;100.00
56681;BME280;42558;52.388;13.390;2023-03-07T07:28:57;98996.64;;;0.36;100.00
56681;BME280;42558;52.388;13.390;2023-03-07T07:31:27;98996.12;;;0.36;100.00
56681;BME280;42558;52.388;13.390;2023-03-07T07:33:57;98994.10;;;0.39;100.00
56681;BME280;42558;52.388;13.390;2023-03-07T07:36:28;98988.48;;;0.42;100.00
56681;BME280;42558;52.388;13.390;2023-03-07T07:39:05;98987.31;;;0.43;100.00
56681;BME280;42558;52.388;13.390;2023-03-07T07:41:33;98982.29;;;0.50;100.00
56681;BME280;42558;52.388;13.390;2023-03-07T07:44:01;98982.66;;;0.51;100.00
56681;BME280;42558;52.388;13.390;2023-03-07T07:46:30;98986.75;;;0.56;100.00
56681;BME280;42558;52.388;13.390;2023-03-07T07:48:58;98984.09;;;0.60;100.00
56681;BME280;42558;52.388;13.390;2023-03-07T07:51:26;98983.27;;;0.62;100.00
56681;BME280;42558;52.388;13.390;2023-03-07T07:53:55;98985.42;;;0.65;100.00
56681;BME280;42558;52.388;13.390;2023-03-07T07:56:23;98979.88;;;0.65;100.00
56681;BME280;42558;52.388;13.390;2023-03-07T07:58:52;98980.34;;;0.62;100.00
56681;BME280;42558;52.388;13.390;2023-03-07T08:01:23;98982.00;;;0.60;100.00
56681;BME280;42558;52.388;13.390;2023-03-07T08:03:53;98979.41;;;0.60;100.00
56681;BME280;42558;52.388;13.390;2023-03-07T08:06:26;98981.23;;;0.64;100.00
56681;BME280;42558;52.388;13.390;2023-03-07T08:08:57;98982.04;;;0.67;100.00
56681;BME280;42558;52.388;13.390;2023-03-07T08:11:28;98980.05;;;0.72;100.00
56681;BME280;42558;52.388;13.390;2023-03-07T08:13:58;98979.04;;;0.73;100.00
56681;BME280;42558;52.388;13.390;2023-03-07T08:16:28;98978.26;;;0.76;100.00
56681;BME280;42558;52.388;13.390;2023-03-07T08:18:58;98978.84;;;0.79;100.00
56681;BME280;42558;52.388;13.390;2023-03-07T08:21:29;98975.88;;;0.86;100.00
56681;BME280;42558;52.388;13.390;2023-03-07T08:23:59;98976.17;;;0.91;100.00
56681;BME280;42558;52.388;13.390;2023-03-07T08:26:30;98972.16;;;0.97;100.00
56681;BME280;42558;52.388;13.390;2023-03-07T08:29:00;98971.18;;;1.00;100.00
56681;BME280;42558;52.388;13.390;2023-03-07T08:31:28;98961.79;;;1.05;100.00
56681;BME280;42558;52.388;13.390;2023-03-07T08:33:57;98963.10;;;1.09;100.00
56681;BME280;42558;52.388;13.390;2023-03-07T08:36:25;98959.42;;;1.15;100.00
56681;BME280;42558;52.388;13.390;2023-03-07T08:38:53;98959.91;;;1.21;100.00
56681;BME280;42558;52.388;13.390;2023-03-07T08:41:22;98957.78;;;1.27;100.00
56681;BME280;42558;52.388;13.390;2023-03-07T08:43:52;98957.57;;;1.34;100.00
56681;BME280;42558;52.388;13.390;2023-03-07T08:46:19;98963.66;;;1.44;100.00
56681;BME280;42558;52.388;13.390;2023-03-07T08:48:47;98964.27;;;1.49;100.00
56681;BME280;42558;52.388;13.390;2023-03-07T08:51:17;98964.70;;;1.60;100.00
56681;BME280;42558;52.388;13.390;2023-03-07T08:53:45;98964.17;;;1.69;100.00
56681;BME280;42558;52.388;13.390;2023-03-07T08:56:16;98962.27;;;1.77;100.00
56681;BME280;42558;52.388;13.390;2023-03-07T08:58:44;98966.27;;;1.87;100.00
56681;BME280;42558;52.388;13.390;2023-03-07T09:01:13;98965.44;;;1.99;100.00
56681;BME280;42558;52.388;13.390;2023-03-07T09:03:42;98968.42;;;2.10;100.00
56681;BME280;42558;52.388;13.390;2023-03-07T09:06:16;98969.84;;;2.21;100.00
56681;BME280;42558;52.388;13.390;2023-03-07T09:08:48;98974.86;;;2.21;100.00
56681;BME280;42558;52.388;13.390;2023-03-07T09:11:18;98971.00;;;2.19;100.00
56681;BME280;42558;52.388;13.390;2023-03-07T09:13:49;98973.09;;;2.18;100.00
56681;BME280;42558;52.388;13.390;2023-03-07T09:16:21;98966.27;;;2.26;100.00
56681;BME280;42558;52.388;13.390;2023-03-07T09:18:52;98971.01;;;2.29;100.00
56681;BME280;42558;52.388;13.390;2023-03-07T09:21:21;98972.16;;;2.35;100.00
56681;BME280;42558;52.388;13.390;2023-03-07T09:23:52;98973.30;;;2.40;100.00
56681;BME280;42558;52.388;13.390;2023-03-07T09:26:22;98972.71;;;2.47;100.00
56681;BME280;42558;52.388;13.390;2023-03-07T09:28:52;98968.99;;;2.63;100.00
56681;BME280;42558;52.388;13.390;2023-03-07T09:31:21;98967.76;;;2.84;100.00
56681;BME280;42558;52.388;13.390;2023-03-07T09:33:52;98968.10;;;2.95;100.00
56681;BME280;42558;52.388;13.390;2023-03-07T09:36:21;98973.70;;;2.98;100.00
56681;BME280;42558;52.388;13.390;2023-03-07T09:38:51;98972.35;;;3.00;100.00
56681;BME280;42558;52.388;13.390;2023-03-07T09:50:22;98966.34;;;3.31;100.00
56681;BME280;42558;52.388;13.390;2023-03-07T09:53:01;98972.00;;;3.25;100.00
56681;BME280;42558;52.388;13.390;2023-03-07T09:55:31;98967.52;;;3.27;100.00
56681;BME280;42558;52.388;13.390;2023-03-07T09:58:13;98967.32;;;3.25;100.00
56681;BME280;42558;52.388;13.390;2023-03-07T10:00:45;98967.19;;;3.29;100.00
56681;BME280;42558;52.388;13.390;2023-03-07T10:03:43;98962.02;;;3.19;100.00
56681;BME280;42558;52.388;13.390;2023-03-07T10:06:45;98965.05;;;3.12;100.00
56681;BME280;42558;52.388;13.390;2023-03-07T10:09:20;98960.41;;;3.04;100.00
56681;BME280;42558;52.388;13.390;2023-03-07T10:18:39;98964.08;;;3.04;100.00
56681;BME280;42558;52.388;13.390;2023-03-07T10:27:10;98965.41;;;2.89;100.00
56681;BME280;42558;52.388;13.390;2023-03-07T10:29:48;98965.14;;;2.94;100.00
56681;BME280;42558;52.388;13.390;2023-03-07T10:32:50;98961.88;;;2.95;100.00
56681;BME280;42558;52.388;13.390;2023-03-07T10:35:36;98960.02;;;2.99;100.00
56681;BME280;42558;52.388;13.390;2023-03-07T10:41:21;98961.77;;;2.89;100.00
56681;BME280;42558;52.388;13.390;2023-03-07T10:43:52;98966.23;;;2.97;100.00
56681;BME280;42558;52.388;13.390;2023-03-07T10:46:29;98961.73;;;2.99;100.00
56681;BME280;42558;52.388;13.390;2023-03-07T10:49:06;98961.75;;;3.01;100.00
56681;BME280;42558;52.388;13.390;2023-03-07T10:54:36;98959.98;;;2.97;100.00
56681;BME280;42558;52.388;13.390;2023-03-07T10:57:12;98952.38;;;3.00;100.00
56681;BME280;42558;52.388;13.390;2023-03-07T10:59:48;98944.61;;;3.03;100.00
56681;BME280;42558;52.388;13.390;2023-03-07T11:02:41;98939.47;;;2.95;100.00
56681;BME280;42558;52.388;13.390;2023-03-07T11:07:53;98930.29;;;2.85;100.00
56681;BME280;42558;52.388;13.390;2023-03-07T11:10:33;98930.40;;;2.80;100.00
56681;BME280;42558;52.388;13.390;2023-03-07T11:13:18;98926.39;;;2.78;100.00
56681;BME280;42558;52.388;13.390;2023-03-07T11:15:49;98925.02;;;2.80;100.00
56681;BME280;42558;52.388;13.390;2023-03-07T11:18:42;98923.76;;;2.77;100.00
56681;BME280;42558;52.388;13.390;2023-03-07T11:21:31;98923.05;;;2.65;100.00
56681;BME280;42558;52.388;13.390;2023-03-07T11:24:04;98915.45;;;2.67;100.00
56681;BME280;42558;52.388;13.390;2023-03-07T11:26:39;98916.85;;;2.68;100.00
56681;BME280;42558;52.388;13.390;2023-03-07T11:29:11;98916.09;;;2.75;100.00
56681;BME280;42558;52.388;13.390;2023-03-07T11:32:17;98912.92;;;2.72;100.00
56681;BME280;42558;52.388;13.390;2023-03-07T11:34:56;98912.48;;;2.66;100.00
56681;BME280;42558;52.388;13.390;2023-03-07T11:37:32;98914.64;;;2.60;100.00
56681;BME280;42558;52.388;13.390;2023-03-07T11:40:48;98910.56;;;2.65;100.00
56681;BME280;42558;52.388;13.390;2023-03-07T12:00:29;98901.14;;;2.40;100.00
56681;BME280;42558;52.388;13.390;2023-03-07T12:06:40;98890.73;;;2.40;100.00
56681;BME280;42558;52.388;13.390;2023-03-07T12:14:53;98888.95;;;2.47;100.00
56681;BME280;42558;52.388;13.390;2023-03-07T12:20:54;98888.48;;;2.39;100.00
56681;BME280;42558;52.388;13.390;2023-03-07T12:23:51;98890.77;;;2.41;100.00
56681;BME280;42558;52.388;13.390;2023-03-07T12:29:38;98882.73;;;2.27;100.00
56681;BME280;42558;52.388;13.390;2023-03-07T12:32:18;98887.14;;;2.21;100.00
56681;BME280;42558;52.388;13.390;2023-03-07T12:35:26;98886.61;;;2.09;100.00
56681;BME280;42558;52.388;13.390;2023-03-07T12:41:13;98892.77;;;1.96;100.00
56681;BME280;42558;52.388;13.390;2023-03-07T12:43:57;98888.00;;;1.89;100.00
56681;BME280;42558;52.388;13.390;2023-03-07T12:46:45;98888.91;;;1.83;100.00
56681;BME280;42558;52.388;13.390;2023-03-07T12:49:37;98884.23;;;1.73;100.00
56681;BME280;42558;52.388;13.390;2023-03-07T12:52:46;98888.84;;;1.70;100.00
56681;BME280;42558;52.388;13.390;2023-03-07T12:55:54;98884.40;;;1.64;100.00
56681;BME280;42558;52.388;13.390;2023-03-07T12:58:39;98885.22;;;1.70;100.00
56681;BME280;42558;52.388;13.390;2023-03-07T13:01:28;98887.81;;;1.61;100.00
56681;BME280;42558;52.388;13.390;2023-03-07T13:07:45;98893.50;;;1.50;100.00
56681;BME280;42558;52.388;13.390;2023-03-07T13:10:23;98895.77;;;1.52;100.00
56681;BME280;42558;52.388;13.390;2023-03-07T13:12:53;98898.94;;;1.45;100.00
56681;BME280;42558;52.388;13.390;2023-03-07T13:17:57;98903.59;;;1.35;100.00
56681;BME280;42558;52.388;13.390;2023-03-07T13:23:11;98902.55;;;1.27;100.00
56681;BME280;42558;52.388;13.390;2023-03-07T13:26:00;98906.03;;;1.28;100.00
56681;BME280;42558;52.388;13.390;2023-03-07T13:28:45;98910.27;;;1.23;100.00
56681;BME280;42558;52.388;13.390;2023-03-07T13:33:45;98920.70;;;1.17;100.00
56681;BME280;42558;52.388;13.390;2023-03-07T13:36:37;98922.35;;;1.13;100.00
56681;BME280;42558;52.388;13.390;2023-03-07T13:39:36;98917.77;;;1.02;100.00
56681;BME280;42558;52.388;13.390;2023-03-07T13:42:46;98912.83;;;1.14;100.00
56681;BME280;42558;52.388;13.390;2023-03-07T13:51:07;98913.59;;;1.25;100.00
56681;BME280;42558;52.388;13.390;2023-03-07T13:53:48;98913.61;;;1.18;100.00
56681;BME280;42558;52.388;13.390;2023-03-07T13:56:24;98913.31;;;1.20;100.00
56681;BME280;42558;52.388;13.390;2023-03-07T13:59:05;98908.60;;;1.10;100.00
56681;BME280;42558;52.388;13.390;2023-03-07T14:02:13;98912.42;;;1.11;100.00
56681;BME280;42558;52.388;13.390;2023-03-07T14:04:53;98915.80;;;1.23;100.00
56681;BME280;42558;52.388;13.390;2023-03-07T14:07:36;98918.86;;;1.21;100.00
56681;BME280;42558;52.388;13.390;2023-03-07T14:10:29;98924.41;;;1.22;100.00
56681;BME280;42558;52.388;13.390;2023-03-07T14:13:44;98919.04;;;1.12;100.00
56681;BME280;42558;52.388;13.390;2023-03-07T14:19:51;98920.81;;;1.06;100.00
56681;BME280;42558;52.388;13.390;2023-03-07T14:25:53;98912.78;;;1.12;100.00
56681;BME280;42558;52.388;13.390;2023-03-07T14:28:28;98904.23;;;1.08;100.00
56681;BME280;42558;52.388;13.390;2023-03-07T14:31:02;98905.48;;;1.09;100.00
56681;BME280;42558;52.388;13.390;2023-03-07T14:33:37;98904.79;;;1.09;100.00
56681;BME280;42558;52.388;13.390;2023-03-07T14:36:20;98903.27;;;1.11;100.00
56681;BME280;42558;52.388;13.390;2023-03-07T14:38:56;98904.56;;;1.15;100.00
56681;BME280;42558;52.388;13.390;2023-03-07T14:41:36;98905.13;;;1.09;100.00
56681;BME280;42558;52.388;13.390;2023-03-07T14:44:29;98909.10;;;1.09;100.00
56681;BME280;42558;52.388;13.390;2023-03-07T14:50:22;98912.38;;;1.08;100.00
56681;BME280;42558;52.388;13.390;2023-03-07T14:53:14;98914.58;;;1.14;100.00
56681;BME280;42558;52.388;13.390;2023-03-07T14:55:48;98923.08;;;1.15;100.00
56681;BME280;42558;52.388;13.390;2023-03-07T14:58:26;98923.14;;;1.18;100.00